Time;durP1;ratioP1;P1;durP2;ratioP2;P2;SDS_P1;SDS_P2;PMS_P1;PMS_P2;Temp;Humidity;BMP_temperature;BMP_pressure;BME280_temperature;BME280_humidity;BME280_pressure;Samples;Min_cycle;Max_cycle;Signal;HPM_P1;HPM_P2
2022/08/01 00:00:29;;;;;;;1.25;0.75;;;;;;;17.12;81.02;100615.06;5031206;28;20031;-73
2022/08/01 00:02:55;;;;;;;2.25;0.70;;;;;;;17.14;80.59;100632.97;5024768;28;20464;-75
2022/08/01 00:05:20;;;;;;;1.80;0.70;;;;;;;17.16;81.01;100636.25;5014665;28;20341;-73
2022/08/01 00:07:46;;;;;;;2.20;1.00;;;;;;;17.15;81.16;100631.03;5036637;28;20045;-74
2022/08/01 00:10:16;;;;;;;5.10;1.30;;;;;;;17.19;80.99;100630.13;5031050;28;20041;-72
2022/08/01 00:12:42;;;;;;;2.45;0.88;;;;;;;17.16;80.60;100625.22;5032624;28;20098;-73
2022/08/01 00:15:10;;;;;;;1.27;0.90;;;;;;;17.15;80.67;100628.28;5010115;28;20022;-74
2022/08/01 00:17:36;;;;;;;2.55;0.77;;;;;;;17.10;81.50;100626.44;5030182;28;20034;-73
2022/08/01 00:20:03;;;;;;;1.75;0.98;;;;;;;17.05;81.03;100635.63;5032902;28;20029;-74
2022/08/01 00:22:31;;;;;;;1.45;0.85;;;;;;;17.04;80.92;100634.00;5024471;28;20057;-74
2022/08/01 00:24:56;;;;;;;1.73;1.13;;;;;;;17.01;80.79;100629.09;5031091;28;20080;-72
2022/08/01 00:27:21;;;;;;;2.60;0.98;;;;;;;16.95;81.19;100624.75;5015389;28;20077;-73
2022/08/01 00:29:47;;;;;;;2.17;0.73;;;;;;;16.91;81.44;100626.50;5040978;28;20032;-72
2022/08/01 00:32:13;;;;;;;0.80;0.70;;;;;;;16.87;81.33;100634.56;5037301;28;20454;-73
2022/08/01 00:34:38;;;;;;;2.67;1.10;;;;;;;16.85;81.47;100631.28;5028642;28;20021;-74
2022/08/01 00:37:04;;;;;;;2.13;1.08;;;;;;;16.84;81.68;100640.66;5035680;28;20026;-73
2022/08/01 00:39:29;;;;;;;3.13;1.23;;;;;;;16.81;81.91;100641.28;5051439;28;20051;-74
2022/08/01 00:41:55;;;;;;;2.60;1.23;;;;;;;16.80;81.80;100649.88;5028831;28;20018;-74
2022/08/01 00:44:20;;;;;;;3.72;1.30;;;;;;;16.73;82.21;100644.72;5028234;28;20057;-72
2022/08/01 00:46:46;;;;;;;1.08;0.68;;;;;;;16.71;82.04;100652.50;5011963;28;20037;-73
2022/08/01 00:49:11;;;;;;;2.70;1.00;;;;;;;16.68;82.24;100651.16;5026583;28;20612;-73
2022/08/01 00:51:38;;;;;;;3.17;1.00;;;;;;;16.69;82.39;100655.56;5033741;28;20036;-74
2022/08/01 00:54:04;;;;;;;3.30;1.17;;;;;;;16.66;82.80;100647.06;5028865;28;20395;-73
2022/08/01 00:56:30;;;;;;;2.35;1.02;;;;;;;16.66;82.39;100644.28;5033707;28;20021;-74
2022/08/01 00:58:56;;;;;;;4.88;1.33;;;;;;;16.73;82.50;100647.47;5034921;28;20025;-72
2022/08/01 01:01:22;;;;;;;1.70;1.02;;;;;;;16.73;82.42;100650.25;5022659;28;20388;-73
2022/08/01 01:03:49;;;;;;;4.07;1.40;;;;;;;16.71;82.84;100647.78;5035872;28;20100;-73
2022/08/01 01:06:42;;;;;;;2.47;1.20;;;;;;;16.67;82.75;100645.94;5030527;28;20017;-72
2022/08/01 01:09:10;;;;;;;2.15;1.02;;;;;;;16.67;82.74;100648.69;5032575;28;20083;-74
2022/08/01 01:12:01;;;;;;;1.83;1.13;;;;;;;16.69;82.72;100650.03;5028122;28;21189;-73
2022/08/01 01:14:53;;;;;;;2.45;1.20;;;;;;;16.76;82.38;100655.16;5060534;28;20033;-74
2022/08/01 01:17:27;;;;;;;2.50;1.00;;;;;;;16.83;82.25;100660.31;5028428;28;20101;-74
2022/08/01 01:19:56;;;;;;;2.55;1.10;;;;;;;16.82;82.19;100651.22;5032644;28;20526;-72
2022/08/01 01:22:36;;;;;;;3.65;1.40;;;;;;;16.86;82.24;100648.66;5034140;28;20489;-73
2022/08/01 01:25:29;;;;;;;2.47;1.33;;;;;;;16.88;81.52;100655.56;5029512;28;20029;-73
2022/08/01 01:28:03;;;;;;;1.85;1.20;;;;;;;16.91;81.78;100643.91;5034911;28;20140;-73
2022/08/01 01:30:32;;;;;;;1.50;1.15;;;;;;;17.04;81.36;100650.56;5035210;28;20035;-74
2022/08/01 01:33:02;;;;;;;4.25;0.90;;;;;;;17.08;80.71;100651.63;5034168;28;20049;-74
2022/08/01 01:35:32;;;;;;;3.72;1.15;;;;;;;17.15;80.05;100645.66;5034923;28;20041;-72
2022/08/01 01:38:16;;;;;;;2.35;1.20;;;;;;;17.22;79.89;100651.63;5027446;28;20046;-71
2022/08/01 01:40:44;;;;;;;1.13;0.77;;;;;;;17.30;79.31;100646.50;5030158;28;20037;-72
2022/08/01 01:43:11;;;;;;;1.80;0.82;;;;;;;17.39;78.60;100644.66;5028290;28;20926;-73
2022/08/01 01:45:38;;;;;;;1.27;0.90;;;;;;;17.50;77.43;100635.03;5029077;28;20042;-73
2022/08/01 01:48:06;;;;;;;1.25;0.77;;;;;;;17.41;77.74;100634.13;5031725;28;20068;-74
2022/08/01 01:50:32;;;;;;;1.67;0.90;;;;;;;17.37;77.21;100635.88;5029137;28;20034;-73
2022/08/01 01:53:01;;;;;;;0.90;0.50;;;;;;;17.27;77.58;100631.34;5030569;28;20022;-74
2022/08/01 01:55:28;;;;;;;1.33;0.77;;;;;;;17.19;77.24;100621.84;5030751;28;20368;-73
2022/08/01 01:57:55;;;;;;;1.48;0.63;;;;;;;17.18;77.05;100622.94;5034123;28;20025;-73
2022/08/01 02:00:22;;;;;;;2.95;1.10;;;;;;;17.22;77.07;100628.69;5026621;28;20113;-73
2022/08/01 02:02:49;;;;;;;1.10;0.75;;;;;;;17.20;76.49;100631.78;5017585;28;20045;-72
2022/08/01 02:05:15;;;;;;;3.08;1.17;;;;;;;17.22;76.08;100635.03;5017625;28;20029;-74
2022/08/01 02:07:42;;;;;;;2.60;1.10;;;;;;;17.31;75.95;100634.34;5027638;28;20542;-73
2022/08/01 02:10:10;;;;;;;2.47;1.27;;;;;;;17.51;75.22;100636.69;5023728;28;20054;-73
2022/08/01 02:12:38;;;;;;;1.83;0.93;;;;;;;17.53;74.67;100628.88;5033140;28;20041;-75
2022/08/01 02:15:06;;;;;;;1.35;0.93;;;;;;;17.55;73.76;100637.72;5034293;28;20049;-73
2022/08/01 02:17:32;;;;;;;1.77;0.80;;;;;;;17.59;74.12;100638.72;5029102;28;20574;-73
2022/08/01 02:19:58;;;;;;;1.92;0.80;;;;;;;17.61;73.69;100636.47;5036398;28;20053;-73
2022/08/01 02:22:36;;;;;;;2.15;1.00;;;;;;;17.63;73.01;100639.75;5018795;28;20052;-72
2022/08/01 02:25:10;;;;;;;1.25;0.80;;;;;;;17.63;72.57;100639.75;5030861;28;20025;-73
2022/08/01 02:28:03;;;;;;;1.95;0.88;;;;;;;17.60;72.08;100640.38;5025667;28;20467;-73
2022/08/01 02:30:34;;;;;;;0.93;0.80;;;;;;;17.62;71.96;100631.75;5031978;28;20120;-74
2022/08/01 02:33:05;;;;;;;2.45;0.73;;;;;;;17.59;72.08;100632.38;5027983;28;20056;-72
2022/08/01 02:35:39;;;;;;;1.15;0.80;;;;;;;17.53;71.64;100625.31;5033156;28;20494;-74
2022/08/01 02:38:07;;;;;;;0.88;0.40;;;;;;;17.54;71.42;100622.25;5034459;28;20454;-73
2022/08/01 02:40:35;;;;;;;1.27;0.70;;;;;;;17.51;70.83;100625.63;5022148;28;20037;-74
2022/08/01 02:43:05;;;;;;;1.88;0.70;;;;;;;17.49;70.88;100622.34;5034982;28;20118;-73
2022/08/01 02:45:34;;;;;;;2.45;0.80;;;;;;;17.50;70.54;100632.28;5028264;28;20522;-74
2022/08/01 02:48:07;;;;;;;1.35;0.90;;;;;;;17.52;70.63;100627.28;5033257;28;20087;-73
2022/08/01 02:50:34;;;;;;;1.17;0.80;;;;;;;17.49;70.52;100627.88;5039755;28;20404;-74
2022/08/01 02:53:02;;;;;;;1.92;0.80;;;;;;;17.49;70.06;100625.09;5038465;28;20384;-73
2022/08/01 02:55:28;;;;;;;2.17;1.00;;;;;;;17.52;69.68;100627.28;5034763;28;20029;-72
2022/08/01 02:57:56;;;;;;;1.13;0.80;;;;;;;17.43;69.75;100618.88;5032507;28;20030;-73
2022/08/01 03:00:23;;;;;;;1.80;0.90;;;;;;;17.51;70.21;100625.63;5038990;28;20133;-72
2022/08/01 03:02:51;;;;;;;4.22;1.08;;;;;;;17.45;69.34;100621.34;5036308;28;20048;-72
2022/08/01 03:05:18;;;;;;;0.80;0.60;;;;;;;17.32;69.21;100611.91;5029689;28;20016;-73
2022/08/01 03:07:44;;;;;;;1.92;0.80;;;;;;;17.20;69.70;100615.19;5017588;28;20034;-73
2022/08/01 03:10:10;;;;;;;1.38;0.70;;;;;;;17.19;69.71;100619.06;5036677;28;20463;-72
2022/08/01 03:12:37;;;;;;;1.20;0.47;;;;;;;17.24;69.74;100621.75;5028470;28;20033;-72
2022/08/01 03:15:05;;;;;;;1.25;0.60;;;;;;;17.36;68.78;100612.94;5029613;28;20044;-71
2022/08/01 03:17:32;;;;;;;1.05;0.50;;;;;;;17.42;68.69;100608.09;5038066;28;20037;-72
2022/08/01 03:20:01;;;;;;;0.50;0.43;;;;;;;17.53;68.40;100612.31;5030617;28;20080;-73
2022/08/01 03:22:29;;;;;;;0.93;0.60;;;;;;;17.56;68.03;100619.16;5030714;28;20463;-74
2022/08/01 03:24:58;;;;;;;1.35;0.65;;;;;;;17.53;67.60;100623.38;5038825;28;20025;-72
2022/08/01 03:27:25;;;;;;;1.88;0.68;;;;;;;17.57;67.55;100629.13;5024750;28;20048;-73
2022/08/01 03:29:51;;;;;;;1.30;0.60;;;;;;;17.61;67.14;100625.41;5034777;28;20502;-73
2022/08/01 03:32:21;;;;;;;2.80;0.77;;;;;;;17.71;66.29;100626.31;5030536;28;20122;-73
2022/08/01 03:34:47;;;;;;;1.90;0.68;;;;;;;17.64;66.07;100629.50;5033405;28;20017;-73
2022/08/01 03:37:23;;;;;;;1.55;0.73;;;;;;;17.70;66.30;100633.00;5038041;28;20544;-73
2022/08/01 03:39:55;;;;;;;0.82;0.50;;;;;;;17.80;66.20;100627.25;5031012;28;20038;-73
2022/08/01 03:42:28;;;;;;;0.60;0.40;;;;;;;17.85;65.69;100615.25;5030817;28;20029;-73
2022/08/01 03:44:58;;;;;;;1.85;0.68;;;;;;;17.82;65.86;100608.38;5038895;28;20045;-74
2022/08/01 03:47:29;;;;;;;0.60;0.50;;;;;;;17.83;65.70;100610.03;5037119;28;20088;-71
2022/08/01 03:49:57;;;;;;;0.80;0.50;;;;;;;17.80;65.55;100617.00;5062073;28;20021;-72
2022/08/01 03:52:25;;;;;;;1.30;0.70;;;;;;;17.77;65.36;100611.25;5029913;28;20091;-72
2022/08/01 03:54:54;;;;;;;0.80;0.40;;;;;;;17.82;64.73;100618.63;5031687;28;20021;-73
2022/08/01 03:57:20;;;;;;;0.47;0.40;;;;;;;17.76;64.50;100620.69;5030064;28;20073;-72
2022/08/01 03:59:46;;;;;;;0.77;0.50;;;;;;;17.75;65.13;100619.84;5039689;28;20087;-73
2022/08/01 04:02:14;;;;;;;2.58;0.65;;;;;;;17.82;64.56;100619.44;5029373;28;20601;-72
2022/08/01 04:04:40;;;;;;;0.50;0.40;;;;;;;17.80;64.73;100618.94;5023355;28;20026;-73
2022/08/01 04:07:21;;;;;;;1.05;0.60;;;;;;;17.90;64.33;100616.00;5034214;28;20364;-72
2022/08/01 04:09:46;;;;;;;0.63;0.55;;;;;;;17.94;63.57;100616.97;5030191;28;20024;-72
2022/08/01 04:12:12;;;;;;;0.70;0.60;;;;;;;17.93;63.38;100617.28;5018424;28;20029;-72
2022/08/01 04:14:38;;;;;;;0.30;0.30;;;;;;;17.99;63.61;100613.31;5034756;28;20112;-72
2022/08/01 04:17:04;;;;;;;0.73;0.40;;;;;;;17.93;63.09;100609.00;5028975;28;20493;-74
2022/08/01 04:19:29;;;;;;;1.13;0.35;;;;;;;17.84;63.51;100611.63;5035846;28;20081;-74
2022/08/01 04:21:56;;;;;;;0.70;0.50;;;;;;;17.83;63.47;100598.97;5025897;28;20036;-74
2022/08/01 04:24:23;;;;;;;0.77;0.45;;;;;;;17.79;63.03;100597.94;5025170;28;20030;-72
2022/08/01 04:26:51;;;;;;;0.80;0.50;;;;;;;17.67;62.50;100609.53;5066587;28;20034;-73
2022/08/01 04:29:19;;;;;;;1.65;0.70;;;;;;;17.69;63.06;100609.22;5031521;28;20483;-72
2022/08/01 04:31:47;;;;;;;0.38;0.38;;;;;;;17.61;63.02;100608.81;5034748;28;20039;-74
2022/08/01 04:34:17;;;;;;;0.40;0.40;;;;;;;17.69;63.16;100614.75;5032170;28;20579;-72
2022/08/01 04:36:45;;;;;;;0.40;0.40;;;;;;;17.73;62.59;100624.06;5035543;28;20028;-73
2022/08/01 04:39:13;;;;;;;0.40;0.40;;;;;;;17.67;62.49;100622.53;5034936;28;20028;-71
2022/08/01 04:41:40;;;;;;;0.60;0.43;;;;;;;17.73;63.14;100624.06;5026007;28;20037;-73
2022/08/01 04:44:06;;;;;;;1.95;0.68;;;;;;;17.70;62.44;100621.94;5033412;28;20021;-73
2022/08/01 04:46:33;;;;;;;0.57;0.40;;;;;;;17.73;62.58;100627.66;5024290;28;20064;-72
2022/08/01 04:49:00;;;;;;;0.57;0.57;;;;;;;17.74;62.45;100622.94;5034374;28;20037;-73
2022/08/01 04:51:25;;;;;;;0.38;0.30;;;;;;;17.80;62.15;100621.72;5030536;28;20464;-73
2022/08/01 04:53:51;;;;;;;3.65;0.40;;;;;;;17.84;61.70;100631.00;5034898;28;20091;-72
2022/08/01 04:56:18;;;;;;;0.40;0.30;;;;;;;17.95;62.13;100640.75;5051334;28;20033;-72
2022/08/01 04:58:44;;;;;;;2.10;0.57;;;;;;;17.95;61.38;100635.22;5028192;28;20081;-74
2022/08/01 05:01:10;;;;;;;0.38;0.30;;;;;;;17.90;61.17;100638.13;5017532;28;20457;-72
2022/08/01 05:03:36;;;;;;;1.08;0.40;;;;;;;17.87;61.32;100638.72;5035435;28;20025;-72
2022/08/01 05:06:02;;;;;;;1.52;0.40;;;;;;;17.84;60.62;100632.97;5040419;28;20179;-73
2022/08/01 05:08:27;;;;;;;0.68;0.40;;;;;;;17.89;60.93;100630.91;5020802;28;20087;-73
2022/08/01 05:10:53;;;;;;;1.35;0.38;;;;;;;17.90;60.82;100628.97;5034983;28;20029;-73
2022/08/01 05:13:19;;;;;;;0.68;0.40;;;;;;;17.83;60.69;100637.69;5034134;28;20022;-72
2022/08/01 05:15:44;;;;;;;0.73;0.47;;;;;;;17.77;60.47;100644.44;5015431;28;20037;-73
2022/08/01 05:18:10;;;;;;;0.40;0.40;;;;;;;17.75;60.53;100641.16;5031273;28;20043;-75
2022/08/01 05:20:36;;;;;;;0.73;0.60;;;;;;;17.81;60.56;100642.69;5044821;28;20021;-70
2022/08/01 05:23:02;;;;;;;0.82;0.40;;;;;;;17.90;60.60;100640.03;5033004;28;20036;-74
2022/08/01 05:25:28;;;;;;;1.10;0.40;;;;;;;18.09;59.87;100645.44;5033293;28;20420;-73
2022/08/01 05:27:53;;;;;;;0.88;0.45;;;;;;;18.15;59.84;100644.22;5023325;28;20064;-71
2022/08/01 05:30:19;;;;;;;0.30;0.30;;;;;;;18.16;59.41;100645.03;5047042;28;20033;-70
2022/08/01 05:32:44;;;;;;;1.33;0.70;;;;;;;18.22;59.30;100644.56;5003816;28;20053;-73
2022/08/01 05:35:10;;;;;;;0.63;0.40;;;;;;;18.34;58.63;100652.34;5018566;28;20033;-74
2022/08/01 05:37:35;;;;;;;2.40;0.57;;;;;;;18.34;58.15;100652.34;5029725;28;20032;-73
2022/08/01 05:40:01;;;;;;;0.50;0.40;;;;;;;18.31;58.37;100656.56;5027811;28;20030;-75
2022/08/01 05:42:26;;;;;;;0.50;0.50;;;;;;;18.25;58.66;100649.50;5009951;28;20037;-72
2022/08/01 05:44:52;;;;;;;0.40;0.40;;;;;;;18.30;58.88;100663.22;5015211;28;20030;-75
2022/08/01 05:47:18;;;;;;;1.40;0.50;;;;;;;18.35;58.64;100664.22;5054293;28;20064;-72
2022/08/01 05:49:44;;;;;;;0.73;0.50;;;;;;;18.47;58.17;100668.09;5030810;28;20083;-73
2022/08/01 05:52:10;;;;;;;0.88;0.47;;;;;;;18.40;58.67;100672.41;5035508;28;20379;-73
2022/08/01 05:54:36;;;;;;;1.08;0.50;;;;;;;18.39;58.30;100665.25;5030276;28;20082;-73
2022/08/01 05:57:01;;;;;;;1.20;0.50;;;;;;;18.39;58.24;100670.78;5047329;28;20082;-72
2022/08/01 05:59:28;;;;;;;1.85;0.57;;;;;;;18.37;58.72;100667.50;5035903;28;20025;-74
2022/08/01 06:01:53;;;;;;;1.17;0.50;;;;;;;18.43;57.83;100671.81;5020865;28;20116;-72
2022/08/01 06:04:19;;;;;;;0.32;0.30;;;;;;;18.45;58.21;100673.09;5016714;28;20175;-70
2022/08/01 06:06:44;;;;;;;0.50;0.40;;;;;;;18.67;57.38;100682.56;5031374;28;20037;-72
2022/08/01 06:09:10;;;;;;;1.85;0.52;;;;;;;18.76;57.61;100679.84;5031276;28;20026;-71
2022/08/01 06:11:35;;;;;;;0.57;0.45;;;;;;;18.65;57.67;100674.56;5024226;28;20079;-73
2022/08/01 06:14:01;;;;;;;2.22;0.57;;;;;;;18.75;57.18;100675.44;5029660;28;20033;-72
2022/08/01 06:16:26;;;;;;;1.48;0.45;;;;;;;18.71;56.86;100671.69;5022497;28;20064;-71
2022/08/01 06:18:51;;;;;;;0.73;0.50;;;;;;;18.69;56.85;100671.16;5067673;28;20025;-73
2022/08/01 06:21:17;;;;;;;0.65;0.65;;;;;;;18.73;56.60;100675.75;5041876;28;20041;-73
2022/08/01 06:23:42;;;;;;;1.50;0.45;;;;;;;18.86;56.57;100674.09;5037964;28;20033;-73
2022/08/01 06:26:09;;;;;;;1.25;0.40;;;;;;;18.99;56.38;100675.97;5012874;28;20040;-73
2022/08/01 06:28:34;;;;;;;1.88;0.70;;;;;;;18.98;55.57;100668.81;5031764;28;20475;-72
2022/08/01 06:31:00;;;;;;;0.30;0.30;;;;;;;19.10;55.59;100678.47;5031352;28;20026;-74
2022/08/01 06:33:26;;;;;;;1.95;0.45;;;;;;;19.28;55.17;100680.19;5032253;28;20030;-73
2022/08/01 06:35:53;;;;;;;0.68;0.45;;;;;;;19.45;55.14;100686.94;5032815;28;20040;-73
2022/08/01 06:38:19;;;;;;;0.85;0.50;;;;;;;19.54;54.34;100683.09;5024588;28;20048;-72
2022/08/01 06:40:44;;;;;;;2.22;1.35;;;;;;;19.58;53.97;100682.44;5029575;28;20030;-73
2022/08/01 06:43:11;;;;;;;1.92;0.75;;;;;;;19.48;52.98;100683.56;5032713;28;20025;-73
2022/08/01 06:45:37;;;;;;;1.70;0.73;;;;;;;19.40;53.38;100676.81;5035120;28;20041;-73
2022/08/01 06:48:03;;;;;;;0.93;0.63;;;;;;;19.46;54.22;100685.81;5050226;28;20025;-72
2022/08/01 06:50:29;;;;;;;0.40;0.30;;;;;;;19.55;54.02;100683.88;5032892;28;20089;-71
2022/08/01 06:52:54;;;;;;;1.67;0.65;;;;;;;19.68;53.68;100694.06;5032396;28;20040;-72
2022/08/01 06:55:20;;;;;;;2.75;0.40;;;;;;;19.80;53.64;100685.16;5034131;28;20116;-72
2022/08/01 06:57:47;;;;;;;1.08;0.57;;;;;;;19.91;53.25;100680.13;5031747;28;20029;-72
2022/08/01 07:00:13;;;;;;;0.88;0.35;;;;;;;20.19;53.04;100679.84;5032337;28;20142;-73
2022/08/01 07:02:39;;;;;;;2.05;0.65;;;;;;;20.50;51.93;100678.88;5028787;28;20049;-73
2022/08/01 07:05:05;;;;;;;1.83;0.60;;;;;;;20.71;51.62;100682.66;5033511;28;20387;-73
2022/08/01 07:07:32;;;;;;;1.13;0.50;;;;;;;20.93;50.93;100691.94;5016410;28;20025;-72
2022/08/01 07:09:58;;;;;;;6.30;0.52;;;;;;;21.07;50.00;100692.56;5037648;28;20026;-72
2022/08/01 07:12:23;;;;;;;5.38;0.70;;;;;;;21.19;49.56;100693.84;5031709;28;20408;-73
2022/08/01 07:14:49;;;;;;;1.42;0.50;;;;;;;21.23;49.80;100690.06;5035359;28;21384;-71
2022/08/01 07:17:14;;;;;;;3.28;0.90;;;;;;;21.23;49.86;100700.38;5019638;28;20017;-72
2022/08/01 07:19:39;;;;;;;1.08;0.50;;;;;;;21.24;49.42;100691.69;5036289;28;20037;-72
2022/08/01 07:22:05;;;;;;;1.00;0.68;;;;;;;21.33;49.37;100694.44;5040429;28;20028;-72
2022/08/01 07:24:31;;;;;;;1.40;0.50;;;;;;;21.49;49.01;100696.69;5037588;28;20037;-73
2022/08/01 07:26:57;;;;;;;1.25;0.50;;;;;;;21.58;48.94;100705.84;5034816;28;20071;-73
2022/08/01 07:29:26;;;;;;;0.50;0.40;;;;;;;21.70;47.81;100705.97;5036024;28;20494;-74
2022/08/01 07:31:53;;;;;;;0.85;0.50;;;;;;;21.82;47.47;100704.44;5032045;28;20033;-71
2022/08/01 07:34:19;;;;;;;0.80;0.50;;;;;;;21.97;47.49;100706.63;5017879;28;20029;-74
2022/08/01 07:36:44;;;;;;;0.57;0.30;;;;;;;22.14;47.92;100702.94;5036314;28;20040;-74
2022/08/01 07:39:09;;;;;;;1.30;0.70;;;;;;;22.28;46.72;100709.06;5032131;28;20095;-71
2022/08/01 07:41:35;;;;;;;0.60;0.50;;;;;;;22.38;46.80;100719.00;5019953;28;20025;-72
2022/08/01 07:44:00;;;;;;;0.50;0.40;;;;;;;22.60;46.38;100711.44;5033920;28;20025;-73
2022/08/01 07:46:26;;;;;;;0.50;0.47;;;;;;;22.89;45.88;100709.72;5015755;28;20056;-73
2022/08/01 07:48:52;;;;;;;0.52;0.38;;;;;;;23.02;45.63;100714.19;5036043;28;20069;-74
2022/08/01 07:51:17;;;;;;;0.80;0.50;;;;;;;23.18;45.73;100706.81;5017049;28;20041;-73
2022/08/01 07:53:43;;;;;;;0.52;0.38;;;;;;;23.21;45.29;100708.09;5037000;28;20060;-73
2022/08/01 07:56:09;;;;;;;0.95;0.40;;;;;;;23.29;44.07;100709.16;5062995;28;20029;-73
2022/08/01 07:58:35;;;;;;;0.63;0.30;;;;;;;23.29;44.46;100709.16;5044205;28;20056;-71
2022/08/01 08:01:00;;;;;;;1.00;0.38;;;;;;;23.44;44.20;100711.28;5032810;28;20056;-73
2022/08/01 08:03:26;;;;;;;0.80;0.40;;;;;;;23.63;43.55;100709.91;5017699;28;20040;-74
2022/08/01 08:05:52;;;;;;;4.68;0.50;;;;;;;23.76;42.78;100722.72;5029356;28;20088;-74
2022/08/01 08:08:18;;;;;;;1.40;0.60;;;;;;;23.92;42.86;100722.03;5036827;28;20029;-72
2022/08/01 08:10:43;;;;;;;0.80;0.50;;;;;;;24.12;42.72;100723.88;5037800;28;20043;-73
2022/08/01 08:13:09;;;;;;;0.95;0.52;;;;;;;23.98;42.90;100723.44;5035378;28;20480;-72
2022/08/01 08:15:34;;;;;;;0.90;0.47;;;;;;;23.83;42.03;100722.94;5035194;28;20067;-72
2022/08/01 08:18:00;;;;;;;1.10;0.50;;;;;;;23.60;43.15;100722.59;5036438;28;20502;-71
2022/08/01 08:20:26;;;;;;;1.40;0.50;;;;;;;23.42;42.92;100722.00;5063403;28;20040;-74
2022/08/01 08:22:53;;;;;;;2.42;0.60;;;;;;;23.17;43.19;100724.72;5032232;28;20071;-72
2022/08/01 08:25:21;;;;;;;0.82;0.60;;;;;;;22.99;43.66;100723.22;5035187;28;20205;-73
2022/08/01 08:27:47;;;;;;;3.95;0.63;;;;;;;22.96;43.70;100724.72;5034110;28;20026;-73
2022/08/01 08:30:13;;;;;;;2.70;0.50;;;;;;;23.07;43.01;100729.88;5033933;28;20028;-73
2022/08/01 08:32:39;;;;;;;2.45;0.70;;;;;;;23.32;42.84;100725.22;5024610;28;20093;-73
2022/08/01 08:35:06;;;;;;;0.77;0.40;;;;;;;23.77;42.24;100734.69;5029237;28;20026;-73
2022/08/01 08:37:31;;;;;;;0.43;0.30;;;;;;;24.14;41.04;100727.13;5026231;28;20116;-74
2022/08/01 08:39:57;;;;;;;1.15;0.40;;;;;;;24.42;41.05;100718.00;5034209;28;20502;-74
2022/08/01 08:42:23;;;;;;;1.48;0.43;;;;;;;24.74;40.37;100729.34;5035259;28;20037;-74
2022/08/01 08:44:48;;;;;;;0.60;0.32;;;;;;;25.24;39.48;100721.53;5036729;28;20074;-73
2022/08/01 08:47:15;;;;;;;0.63;0.40;;;;;;;25.74;38.33;100725.66;5015838;28;20070;-74
2022/08/01 08:49:43;;;;;;;0.88;0.35;;;;;;;25.80;38.21;100734.56;5033790;28;20033;-72
2022/08/01 08:52:10;;;;;;;5.20;0.40;;;;;;;25.68;37.69;100735.47;5034716;28;20048;-72
2022/08/01 08:54:38;;;;;;;0.95;0.52;;;;;;;25.65;37.60;100729.81;5036496;28;20053;-74
2022/08/01 08:57:04;;;;;;;2.13;0.43;;;;;;;25.95;38.01;100738.56;5036831;28;20479;-73
2022/08/01 08:59:31;;;;;;;1.58;0.40;;;;;;;26.17;37.24;100733.44;5035736;28;20052;-73
2022/08/01 09:01:58;;;;;;;1.48;0.38;;;;;;;26.07;37.41;100729.25;5032943;28;20053;-72
2022/08/01 09:04:24;;;;;;;1.17;0.25;;;;;;;26.10;36.86;100734.13;5022798;28;20030;-72
2022/08/01 09:06:50;;;;;;;1.38;0.60;;;;;;;25.93;37.10;100724.91;5032227;28;20065;-72
2022/08/01 09:09:16;;;;;;;1.50;0.50;;;;;;;25.57;37.38;100710.03;5027483;28;20071;-72
2022/08/01 09:11:41;;;;;;;1.27;0.50;;;;;;;25.34;37.57;100717.44;5034203;28;20049;-72
2022/08/01 09:14:22;;;;;;;0.70;0.40;;;;;;;25.15;37.92;100720.88;5031253;28;20018;-71
2022/08/01 09:17:10;;;;;;;1.02;0.50;;;;;;;25.14;37.88;100722.84;5035072;28;20084;-73
2022/08/01 09:19:51;;;;;;;0.85;0.25;;;;;;;25.31;38.14;100720.94;5029359;28;20017;-75
2022/08/01 09:22:22;;;;;;;1.08;0.20;;;;;;;25.55;37.48;100731.97;5035626;28;20032;-72
2022/08/01 09:25:09;;;;;;;0.70;0.40;;;;;;;25.88;37.08;100727.97;5028669;28;20022;-71
2022/08/01 09:27:37;;;;;;;0.68;0.40;;;;;;;26.45;36.46;100720.09;5044870;28;20475;-73
2022/08/01 09:30:08;;;;;;;2.85;0.77;;;;;;;26.93;35.92;100714.28;5030762;28;20033;-75
2022/08/01 09:32:33;;;;;;;0.50;0.20;;;;;;;26.95;35.49;100711.91;5032980;28;20028;-73
2022/08/01 09:35:23;;;;;;;1.05;0.63;;;;;;;26.56;35.66;100706.31;5031991;28;20049;-73
2022/08/01 09:37:48;;;;;;;1.75;0.63;;;;;;;26.15;36.60;100703.00;5035966;28;20096;-72
2022/08/01 09:40:14;;;;;;;0.63;0.40;;;;;;;26.00;37.03;100703.88;5027776;28;20053;-72
2022/08/01 09:42:40;;;;;;;0.60;0.40;;;;;;;25.88;37.21;100705.56;5059424;28;20036;-71
2022/08/01 09:45:06;;;;;;;1.67;0.40;;;;;;;26.16;37.15;100707.44;5007889;28;20054;-71
2022/08/01 09:47:42;;;;;;;0.57;0.40;;;;;;;27.13;35.49;100711.44;5049719;28;20075;-71
2022/08/01 09:50:08;;;;;;;1.13;0.50;;;;;;;28.24;33.78;100712.50;5045936;28;20037;-71
2022/08/01 09:52:35;;;;;;;0.93;0.50;;;;;;;29.41;32.39;100700.22;5023605;28;20063;-70
2022/08/01 09:55:04;;;;;;;0.30;0.30;;;;;;;30.62;30.68;100714.72;5029449;28;20040;-72
2022/08/01 09:57:30;;;;;;;2.22;0.57;;;;;;;31.61;29.68;100711.75;5025114;28;20026;-72
2022/08/01 09:59:58;;;;;;;2.55;0.60;;;;;;;32.52;27.98;100718.84;5028462;28;20032;-73
2022/08/01 10:02:27;;;;;;;1.20;0.47;;;;;;;33.65;27.12;100720.63;5031543;28;20092;-73
2022/08/01 10:04:53;;;;;;;1.27;0.85;;;;;;;34.94;25.69;100726.97;5033662;28;20021;-71
2022/08/01 10:07:19;;;;;;;0.95;0.57;;;;;;;36.03;24.95;100731.72;5049066;28;20096;-72
2022/08/01 10:09:46;;;;;;;0.77;0.50;;;;;;;35.78;24.86;100729.31;5033644;28;20371;-72
2022/08/01 10:12:14;;;;;;;1.27;0.68;;;;;;;34.05;26.46;100740.13;5018389;28;20029;-74
2022/08/01 10:14:40;;;;;;;0.57;0.32;;;;;;;32.36;28.27;100741.97;5031519;28;20013;-72
2022/08/01 10:17:08;;;;;;;0.80;0.57;;;;;;;31.60;29.70;100744.03;5016787;28;20114;-72
2022/08/01 10:19:35;;;;;;;0.60;0.50;;;;;;;32.62;28.94;100732.16;5036591;28;20505;-71
2022/08/01 10:22:01;;;;;;;0.88;0.47;;;;;;;33.41;27.62;100716.75;5021131;28;20113;-72
2022/08/01 10:24:29;;;;;;;0.60;0.50;;;;;;;33.89;27.63;100707.47;5043796;28;20040;-72
2022/08/01 10:27:03;;;;;;;1.35;0.50;;;;;;;34.17;27.42;100711.25;5032864;28;20025;-72
2022/08/01 10:29:49;;;;;;;1.40;0.65;;;;;;;34.36;27.03;100717.53;5023108;28;20029;-74
2022/08/01 10:32:16;;;;;;;0.82;0.63;;;;;;;34.22;27.42;100724.94;5028166;28;20029;-72
2022/08/01 10:34:42;;;;;;;0.55;0.50;;;;;;;34.17;27.57;100722.59;5033026;28;20040;-73
2022/08/01 10:37:08;;;;;;;0.40;0.40;;;;;;;34.32;26.68;100722.47;5013481;28;20030;-72
2022/08/01 10:39:35;;;;;;;0.75;0.75;;;;;;;34.36;26.73;100717.53;5027132;28;20025;-72
2022/08/01 10:42:02;;;;;;;2.15;0.60;;;;;;;34.78;26.67;100721.06;5030542;28;20032;-72
2022/08/01 10:44:30;;;;;;;1.40;0.50;;;;;;;35.44;26.27;100713.22;5031112;28;20372;-72
2022/08/01 10:47:15;;;;;;;0.68;0.60;;;;;;;36.12;25.91;100719.78;5033703;28;20057;-73
2022/08/01 10:49:51;;;;;;;0.98;0.47;;;;;;;36.40;25.90;100724.09;5061850;28;20033;-72
2022/08/01 10:52:20;;;;;;;1.38;0.70;;;;;;;35.73;25.53;100732.63;5032581;28;20041;-73
2022/08/01 10:54:46;;;;;;;1.15;0.80;;;;;;;34.54;25.24;100729.47;5025562;28;20023;-72
2022/08/01 10:57:12;;;;;;;1.92;0.85;;;;;;;33.13;26.72;100729.09;5032956;28;20025;-73
2022/08/01 10:59:49;;;;;;;1.73;0.80;;;;;;;33.15;27.11;100727.47;5025103;28;20025;-72
2022/08/01 11:02:34;;;;;;;1.30;0.52;;;;;;;33.64;27.33;100724.69;5034739;28;20174;-71
2022/08/01 11:05:09;;;;;;;0.45;0.40;;;;;;;33.66;27.62;100716.56;5048112;28;20030;-72
2022/08/01 11:07:47;;;;;;;0.55;0.38;;;;;;;34.14;28.02;100723.44;5033387;28;20079;-71
2022/08/01 11:10:25;;;;;;;1.67;0.60;;;;;;;34.76;27.62;100723.53;5036102;28;20116;-73
2022/08/01 11:12:51;;;;;;;2.22;0.90;;;;;;;35.55;26.05;100715.91;5033417;28;20080;-73
2022/08/01 11:15:24;;;;;;;2.05;0.70;;;;;;;36.25;25.26;100717.88;5036591;28;20026;-72
2022/08/01 11:17:51;;;;;;;;;;;;;;;37.10;23.83;100727.09;5022819;28;20037;-73
2022/08/01 11:20:25;;;;;;;1.95;0.93;;;;;;;37.21;22.66;100724.81;5035939;28;19912;-73
2022/08/01 11:23:00;;;;;;;0.75;0.50;;;;;;;37.47;22.13;100720.13;5035858;28;20025;-72
2022/08/01 11:25:48;;;;;;;1.60;0.70;;;;;;;37.30;22.28;100715.69;5031439;28;20454;-72
2022/08/01 11:28:15;;;;;;;2.25;0.57;;;;;;;37.39;22.49;100707.28;5043192;28;20029;-73